createdAt,value
2022-12-18T00:01:27.900Z,25.60
2022-12-18T00:03:56.521Z,32.92
2022-12-18T00:06:24.617Z,27.80
2022-12-18T00:08:52.058Z,27.23
2022-12-18T00:11:26.919Z,28.65
2022-12-18T00:13:56.552Z,30.37
2022-12-18T00:16:25.407Z,23.55
2022-12-18T00:18:55.255Z,29.45
2022-12-18T00:21:22.580Z,27.87
2022-12-18T00:23:50.633Z,26.75
2022-12-18T00:26:39.663Z,27.92
2022-12-18T00:29:12.444Z,28.83
2022-12-18T00:31:39.597Z,27.33
2022-12-18T00:34:07.048Z,30.20
2022-12-18T00:36:35.421Z,30.90
2022-12-18T00:39:05.123Z,29.42
2022-12-18T00:41:52.459Z,30.10
2022-12-18T00:44:19.795Z,31.42
2022-12-18T00:46:48.288Z,28.10
2022-12-18T00:49:17.726Z,29.27
2022-12-18T00:51:44.739Z,26.90
2022-12-18T00:54:12.330Z,27.00
2022-12-18T00:56:48.255Z,29.30
2022-12-18T00:59:16.991Z,28.30
2022-12-18T01:01:43.997Z,26.65
2022-12-18T01:04:11.116Z,27.48
2022-12-18T01:06:37.920Z,29.25
2022-12-18T01:09:04.863Z,29.95
2022-12-18T01:11:32.456Z,31.13
2022-12-18T01:14:00.634Z,30.92
2022-12-18T01:16:27.924Z,32.35
2022-12-18T01:18:55.637Z,28.62
2022-12-18T01:21:24.147Z,24.30
2022-12-18T01:23:56.133Z,24.53
2022-12-18T01:26:23.575Z,21.25
2022-12-18T01:28:50.622Z,27.77
2022-12-18T01:31:20.991Z,27.67
2022-12-18T01:33:48.179Z,29.55
2022-12-18T01:36:29.912Z,24.50
2022-12-18T01:38:57.531Z,23.25
2022-12-18T01:41:27.418Z,25.80
2022-12-18T01:43:58.332Z,22.77
2022-12-18T01:46:26.406Z,27.15
2022-12-18T01:49:02.121Z,26.70
2022-12-18T01:51:31.538Z,22.33
2022-12-18T01:54:00.334Z,25.67
2022-12-18T01:56:27.382Z,23.45
2022-12-18T01:58:54.394Z,24.10
2022-12-18T02:01:24.205Z,26.00
2022-12-18T02:03:51.188Z,29.63
2022-12-18T02:06:30.657Z,24.25
2022-12-18T02:09:19.802Z,25.52
2022-12-18T02:11:55.501Z,26.05
2022-12-18T02:14:34.925Z,27.10
2022-12-18T02:17:13.888Z,28.75
2022-12-18T02:19:43.554Z,27.52
2022-12-18T02:22:38.099Z,27.08
2022-12-18T02:25:44.064Z,24.67
2022-12-18T02:28:16.596Z,24.63
2022-12-18T02:30:47.256Z,30.42
2022-12-18T02:33:15.567Z,28.00
2022-12-18T02:35:45.163Z,21.83
2022-12-18T02:38:13.862Z,25.37
2022-12-18T02:40:43.323Z,23.03
2022-12-18T02:43:12.888Z,21.37
2022-12-18T02:45:56.742Z,20.30
2022-12-18T02:48:34.234Z,24.55
2022-12-18T02:51:13.031Z,22.52
2022-12-18T02:53:49.166Z,23.13
2022-12-18T02:56:18.227Z,24.45
2022-12-18T02:58:59.727Z,27.25
2022-12-18T03:02:02.328Z,27.60
2022-12-18T03:04:35.931Z,25.77
2022-12-18T03:07:10.509Z,25.27
2022-12-18T03:09:43.121Z,25.62
2022-12-18T03:12:26.024Z,26.27
2022-12-18T03:15:18.486Z,25.62
2022-12-18T03:17:56.182Z,23.33
2022-12-18T03:20:25.321Z,28.10
2022-12-18T03:23:01.870Z,25.12
2022-12-18T03:25:30.107Z,26.70
2022-12-18T03:28:00.129Z,26.25
2022-12-18T03:30:29.694Z,27.45
2022-12-18T03:33:13.147Z,26.47
2022-12-18T03:35:42.807Z,30.35
2022-12-18T03:38:11.342Z,27.37
2022-12-18T03:40:51.828Z,23.65
2022-12-18T03:44:11.285Z,24.83
2022-12-18T03:46:53.199Z,24.77
2022-12-18T03:49:39.777Z,28.40
2022-12-18T03:52:21.328Z,25.65
2022-12-18T03:54:48.710Z,30.02
2022-12-18T03:57:21.634Z,26.95
2022-12-18T03:59:53.354Z,26.80
2022-12-18T04:02:23.596Z,31.70
2022-12-18T04:04:54.687Z,29.45
2022-12-18T04:07:23.474Z,24.80
2022-12-18T04:09:53.786Z,29.40
2022-12-18T04:12:20.722Z,24.83
2022-12-18T04:14:47.625Z,22.67
2022-12-18T04:17:14.475Z,25.88
2022-12-18T04:19:41.423Z,24.67
2022-12-18T04:22:11.286Z,31.10
2022-12-18T04:24:38.351Z,26.07
2022-12-18T04:27:05.543Z,29.83
2022-12-18T04:29:33.220Z,31.10
2022-12-18T04:32:00.102Z,25.60
2022-12-18T04:34:27.118Z,26.25
2022-12-18T04:36:53.880Z,25.17
2022-12-18T04:39:21.365Z,27.67
2022-12-18T04:41:48.095Z,27.65
2022-12-18T04:44:15.036Z,33.00
2022-12-18T04:46:42.013Z,28.27
2022-12-18T04:49:08.934Z,27.27
2022-12-18T04:51:35.742Z,28.90
2022-12-18T04:54:03.098Z,26.65
2022-12-18T04:56:32.670Z,28.83
2022-12-18T04:58:59.594Z,24.15
2022-12-18T05:01:32.508Z,23.00
2022-12-18T05:04:01.901Z,28.33
2022-12-18T05:06:28.799Z,27.08
2022-12-18T05:08:55.772Z,29.80
2022-12-18T05:11:22.646Z,29.60
2022-12-18T05:13:49.637Z,27.50
2022-12-18T05:16:16.739Z,26.40
2022-12-18T05:18:44.025Z,30.42
2022-12-18T05:21:10.910Z,28.33
2022-12-18T05:23:38.270Z,33.00
2022-12-18T05:26:07.359Z,28.00
2022-12-18T05:28:36.410Z,24.87
2022-12-18T05:31:05.019Z,34.08
2022-12-18T05:33:34.027Z,31.00
2022-12-18T05:36:02.580Z,31.08
2022-12-18T05:38:30.993Z,30.33
2022-12-18T05:40:58.219Z,35.47
2022-12-18T05:43:26.823Z,32.85
2022-12-18T05:45:54.552Z,28.00
2022-12-18T05:48:22.222Z,28.33
2022-12-18T05:50:51.280Z,23.90
2022-12-18T05:53:20.799Z,26.02
2022-12-18T05:55:48.084Z,31.98
2022-12-18T05:58:15.794Z,29.83
2022-12-18T06:00:45.833Z,29.98
2022-12-18T06:03:13.625Z,33.50
2022-12-18T06:05:42.789Z,33.67
2022-12-18T06:08:10.072Z,28.70
2022-12-18T06:10:37.707Z,41.63
2022-12-18T06:13:05.104Z,38.33
2022-12-18T06:15:31.938Z,38.63
2022-12-18T06:17:59.327Z,36.13
2022-12-18T06:20:31.821Z,32.63
2022-12-18T06:23:00.400Z,33.22
2022-12-18T06:25:27.237Z,35.67
2022-12-18T06:27:54.146Z,34.87
2022-12-18T06:30:21.412Z,26.70
2022-12-18T06:32:54.661Z,34.13
2022-12-18T06:35:23.797Z,23.20
2022-12-18T06:37:50.693Z,32.15
2022-12-18T06:40:17.898Z,38.60
2022-12-18T06:42:44.772Z,41.35
2022-12-18T06:45:12.573Z,45.17
2022-12-18T06:47:39.479Z,45.92
2022-12-18T06:50:06.868Z,43.55
2022-12-18T06:52:34.597Z,31.47
2022-12-18T06:55:01.960Z,33.97
2022-12-18T06:57:29.011Z,35.15
2022-12-18T06:59:55.953Z,38.55
2022-12-18T07:02:23.014Z,37.58
2022-12-18T07:04:50.032Z,33.17
2022-12-18T07:07:16.924Z,38.03
2022-12-18T07:09:43.952Z,36.88
2022-12-18T07:12:10.944Z,40.45
2022-12-18T07:14:37.731Z,37.20
2022-12-18T07:17:04.612Z,36.70
2022-12-18T07:19:32.790Z,37.20
2022-12-18T07:21:59.898Z,34.63
2022-12-18T07:24:26.725Z,39.15
2022-12-18T07:26:53.763Z,33.10
2022-12-18T07:29:20.657Z,40.90
2022-12-18T07:31:47.704Z,38.63
2022-12-18T07:34:16.317Z,40.90
2022-12-18T07:36:43.845Z,41.30
2022-12-18T07:39:12.546Z,44.10
2022-12-18T07:41:45.213Z,41.73
2022-12-18T07:44:13.863Z,34.58
2022-12-18T07:46:40.744Z,39.67
2022-12-18T07:49:07.814Z,37.63
2022-12-18T07:51:34.631Z,36.10
2022-12-18T07:54:03.984Z,36.53
2022-12-18T07:56:31.583Z,35.53
2022-12-18T07:58:59.938Z,34.60
2022-12-18T08:01:28.754Z,33.60
2022-12-18T08:03:56.015Z,31.20
2022-12-18T08:06:24.455Z,28.23
2022-12-18T08:08:53.770Z,31.00
2022-12-18T08:11:20.702Z,29.65
2022-12-18T08:13:48.588Z,30.05
2022-12-18T08:16:16.942Z,25.65
2022-12-18T08:18:43.961Z,27.17
2022-12-18T08:21:20.610Z,30.15
2022-12-18T08:23:49.381Z,29.30
2022-12-18T08:26:18.677Z,32.53
2022-12-18T08:28:46.164Z,28.90
2022-12-18T08:31:17.974Z,32.40
2022-12-18T08:33:44.872Z,30.42
2022-12-18T08:36:12.043Z,33.08
2022-12-18T08:38:39.152Z,34.88
2022-12-18T08:41:08.633Z,33.42
2022-12-18T08:43:54.413Z,26.93
2022-12-18T08:46:23.557Z,32.20
2022-12-18T08:48:52.816Z,32.10
2022-12-18T08:51:20.606Z,32.70
2022-12-18T08:53:47.940Z,34.92
2022-12-18T08:56:15.703Z,32.37
2022-12-18T08:58:43.858Z,35.15
2022-12-18T09:01:12.919Z,33.35
2022-12-18T09:03:40.556Z,30.75
2022-12-18T09:06:08.516Z,27.75
2022-12-18T09:08:35.818Z,33.13
2022-12-18T09:11:02.765Z,31.00
2022-12-18T09:13:29.842Z,29.87
2022-12-18T09:15:56.862Z,30.95
2022-12-18T09:18:25.329Z,34.20
2022-12-18T09:20:53.906Z,27.57
2022-12-18T09:23:21.994Z,27.73
2022-12-18T09:25:49.533Z,26.58
2022-12-18T09:28:19.183Z,30.33
2022-12-18T09:30:50.460Z,28.10
2022-12-18T09:33:17.800Z,31.30
2022-12-18T09:35:46.279Z,25.75
2022-12-18T09:38:16.102Z,31.25
2022-12-18T09:40:45.150Z,32.35
2022-12-18T09:43:18.894Z,32.33
2022-12-18T09:45:50.407Z,29.87
2022-12-18T09:48:24.698Z,29.40
2022-12-18T09:50:53.384Z,29.27
2022-12-18T09:53:27.862Z,27.73
2022-12-18T09:55:57.432Z,30.85
2022-12-18T09:58:46.370Z,29.97
2022-12-18T10:01:17.518Z,33.10
2022-12-18T10:03:44.639Z,31.98
2022-12-18T10:06:32.894Z,32.40
2022-12-18T10:09:38.213Z,35.03
2022-12-18T10:12:17.293Z,34.53
2022-12-18T10:15:12.965Z,30.77
2022-12-18T10:17:53.185Z,27.48
2022-12-18T10:20:42.535Z,32.10
2022-12-18T10:23:29.407Z,27.55
2022-12-18T10:26:06.114Z,26.07
2022-12-18T10:28:35.992Z,31.10
2022-12-18T10:31:03.524Z,34.90
2022-12-18T10:33:33.420Z,31.27
2022-12-18T10:36:01.207Z,31.87
2022-12-18T10:38:33.000Z,31.07
2022-12-18T10:41:02.607Z,29.65
2022-12-18T10:43:35.174Z,31.30
2022-12-18T10:46:15.596Z,32.03
2022-12-18T10:48:51.489Z,29.20
2022-12-18T10:51:23.291Z,31.40
2022-12-18T10:54:00.508Z,34.70
2022-12-18T10:56:29.804Z,29.95
2022-12-18T10:59:07.860Z,33.13
2022-12-18T11:01:48.868Z,30.10
2022-12-18T11:04:24.466Z,29.10
2022-12-18T11:07:00.251Z,32.33
2022-12-18T11:09:33.267Z,32.40
2022-12-18T11:12:07.247Z,34.47
2022-12-18T11:14:47.155Z,29.37
2022-12-18T11:17:25.842Z,29.37
2022-12-18T11:19:55.553Z,31.80
2022-12-18T11:22:27.610Z,29.95
2022-12-18T11:28:04.751Z,29.95
2022-12-18T11:30:36.622Z,29.30
2022-12-18T11:33:21.934Z,28.20
2022-12-18T11:36:04.741Z,28.87
2022-12-18T11:38:41.264Z,28.90
2022-12-18T11:41:50.030Z,29.90
2022-12-18T11:44:32.897Z,32.07
2022-12-18T11:47:13.873Z,28.35
2022-12-18T11:49:42.394Z,32.28
2022-12-18T11:52:20.017Z,28.85
2022-12-18T11:54:46.837Z,29.12
2022-12-18T11:57:28.573Z,27.97
2022-12-18T12:00:13.540Z,27.80
2022-12-18T12:03:16.020Z,29.87
2022-12-18T12:06:07.797Z,29.17
2022-12-18T12:09:05.154Z,26.15
2022-12-18T12:11:38.064Z,26.60
2022-12-18T12:14:07.861Z,31.17
2022-12-18T12:16:50.151Z,27.60
2022-12-18T12:19:27.048Z,28.02
2022-12-18T12:22:05.014Z,28.05
2022-12-18T12:24:34.714Z,28.43
2022-12-18T12:27:40.807Z,26.85
2022-12-18T12:30:23.763Z,28.95
2022-12-18T12:33:02.707Z,24.77
2022-12-18T12:35:44.517Z,25.65
2022-12-18T12:38:21.111Z,24.53
2022-12-18T12:41:04.547Z,27.62
2022-12-18T12:43:49.591Z,29.05
2022-12-18T12:46:20.854Z,27.00
2022-12-18T12:48:53.718Z,31.17
2022-12-18T12:51:24.917Z,31.07
2022-12-18T12:53:54.480Z,29.75
2022-12-18T12:56:28.904Z,34.30
2022-12-18T12:59:03.254Z,29.92
2022-12-18T13:01:38.172Z,32.05
2022-12-18T13:04:22.815Z,28.70
2022-12-18T13:07:05.892Z,28.62
2022-12-18T13:09:36.891Z,31.20
2022-12-18T13:12:41.818Z,27.83
2022-12-18T13:15:25.200Z,34.75
2022-12-18T13:18:15.736Z,30.10
2022-12-18T13:20:52.259Z,33.90
2022-12-18T13:23:29.379Z,31.27
2022-12-18T13:26:24.763Z,33.55
2022-12-18T13:28:56.532Z,30.70
2022-12-18T13:31:44.780Z,28.33
2022-12-18T13:34:26.768Z,29.73
2022-12-18T13:36:56.219Z,31.50
2022-12-18T13:39:32.686Z,29.52
2022-12-18T13:42:07.002Z,29.30
2022-12-18T13:44:40.572Z,28.40
2022-12-18T13:47:32.407Z,26.58
2022-12-18T13:50:00.107Z,28.90
2022-12-18T13:52:34.549Z,25.90
2022-12-18T13:55:06.288Z,30.73
2022-12-18T13:57:41.804Z,29.30
2022-12-18T14:00:17.830Z,28.35
2022-12-18T14:02:46.599Z,28.25
2022-12-18T14:05:29.176Z,30.15
2022-12-18T14:08:02.607Z,28.40
2022-12-18T14:10:48.931Z,30.57
2022-12-18T14:13:25.222Z,27.27
2022-12-18T14:15:52.509Z,31.10
2022-12-18T14:18:59.826Z,32.13
2022-12-18T14:21:31.726Z,35.20
2022-12-18T14:24:20.482Z,32.97
2022-12-18T14:26:51.822Z,32.05
2022-12-18T14:29:21.807Z,30.40
2022-12-18T14:32:18.764Z,35.13
2022-12-18T14:34:47.999Z,31.17
2022-12-18T14:37:18.055Z,30.27
2022-12-18T14:40:10.560Z,31.75
2022-12-18T14:42:38.494Z,27.37
2022-12-18T14:45:41.432Z,27.73
2022-12-18T14:48:22.919Z,27.35
2022-12-18T14:51:04.655Z,36.00
2022-12-18T14:53:36.686Z,30.50
2022-12-18T14:56:13.516Z,32.35
2022-12-18T14:58:40.580Z,32.97
2022-12-18T15:01:10.625Z,31.02
2022-12-18T15:03:45.184Z,28.67
2022-12-18T15:06:26.703Z,33.65
2022-12-18T15:08:56.382Z,36.28
2022-12-18T15:11:36.270Z,33.80
2022-12-18T15:14:25.654Z,35.03
2022-12-18T15:16:56.887Z,33.47
2022-12-18T15:19:40.299Z,37.30
2022-12-18T15:22:22.157Z,29.60
2022-12-18T15:24:50.458Z,33.78
2022-12-18T15:27:27.496Z,34.47
2022-12-18T15:30:22.979Z,39.27
2022-12-18T15:32:51.539Z,35.38
2022-12-18T15:35:27.472Z,34.75
2022-12-18T15:37:55.144Z,37.05
2022-12-18T15:40:27.115Z,37.58
2022-12-18T15:43:15.196Z,35.90
2022-12-18T15:45:42.786Z,32.05
2022-12-18T15:48:30.777Z,34.65
2022-12-18T15:51:00.037Z,33.88
2022-12-18T15:53:35.274Z,35.83
2022-12-18T15:56:21.270Z,35.77
2022-12-18T15:58:50.773Z,38.20
2022-12-18T16:01:18.963Z,33.88
2022-12-18T16:03:46.809Z,37.40
2022-12-18T16:06:14.351Z,39.17
2022-12-18T16:08:41.877Z,35.67
2022-12-18T16:11:39.867Z,42.55
2022-12-18T16:14:20.490Z,42.78
2022-12-18T16:16:50.849Z,48.75
2022-12-18T16:19:21.077Z,59.10
2022-12-18T16:21:50.814Z,75.00
2022-12-18T16:24:23.738Z,75.28
2022-12-18T16:26:52.824Z,86.53
2022-12-18T16:29:28.616Z,73.85
2022-12-18T16:32:00.442Z,65.47
2022-12-18T16:34:35.637Z,67.90
2022-12-18T16:37:06.496Z,73.20
2022-12-18T16:39:35.933Z,55.97
2022-12-18T16:42:16.068Z,61.67
2022-12-18T16:44:45.636Z,62.08
2022-12-18T16:47:15.374Z,63.97
2022-12-18T16:49:46.047Z,61.65
2022-12-18T16:52:14.613Z,67.05
2022-12-18T16:54:42.577Z,60.55
2022-12-18T16:57:18.609Z,57.10
2022-12-18T16:59:47.147Z,61.67
2022-12-18T17:02:19.203Z,58.13
2022-12-18T17:04:56.008Z,58.63
2022-12-18T17:07:24.060Z,58.97
2022-12-18T17:09:52.127Z,52.30
2022-12-18T17:12:20.116Z,58.30
2022-12-18T17:14:49.453Z,57.80
2022-12-18T17:17:22.338Z,71.30
2022-12-18T17:19:52.616Z,57.28
2022-12-18T17:22:21.754Z,57.62
2022-12-18T17:24:49.455Z,60.43
2022-12-18T17:27:17.329Z,55.83
2022-12-18T17:29:47.677Z,55.47
2022-12-18T17:32:17.768Z,55.50
2022-12-18T17:34:47.121Z,55.92
2022-12-18T17:37:16.176Z,49.73
2022-12-18T17:39:46.245Z,55.60
2022-12-18T17:42:15.863Z,49.97
2022-12-18T17:44:45.457Z,45.63
2022-12-18T17:47:14.786Z,52.33
2022-12-18T17:49:42.634Z,53.43
2022-12-18T17:52:11.090Z,57.03
2022-12-18T17:54:41.918Z,57.80
2022-12-18T17:57:09.381Z,54.88
2022-12-18T17:59:36.965Z,54.70
2022-12-18T18:02:04.760Z,60.37
2022-12-18T18:04:32.761Z,56.67
2022-12-18T18:07:00.377Z,59.72
2022-12-18T18:09:28.748Z,66.75
2022-12-18T18:12:16.033Z,68.80
2022-12-18T18:14:44.639Z,63.33
2022-12-18T18:17:12.026Z,61.50
2022-12-18T18:19:39.668Z,59.60
2022-12-18T18:22:08.554Z,63.97
2022-12-18T18:24:36.342Z,67.97
2022-12-18T18:27:08.320Z,62.50
2022-12-18T18:29:37.019Z,60.85
2022-12-18T18:32:05.341Z,67.00
2022-12-18T18:34:34.121Z,66.18
2022-12-18T18:37:02.722Z,65.65
2022-12-18T18:39:31.091Z,69.77
2022-12-18T18:41:58.662Z,69.72
2022-12-18T18:44:26.599Z,70.72
2022-12-18T18:46:55.607Z,68.03
2022-12-18T18:49:24.464Z,67.28
2022-12-18T18:51:54.200Z,64.20
2022-12-18T18:54:22.426Z,70.95
2022-12-18T18:59:38.537Z,79.80
2022-12-18T19:02:06.177Z,70.87
2022-12-18T19:04:35.229Z,80.07
2022-12-18T19:07:04.927Z,73.85
2022-12-18T19:09:32.616Z,70.65
2022-12-18T19:12:19.378Z,75.53
2022-12-18T19:14:47.433Z,72.45
2022-12-18T19:17:15.097Z,65.67
2022-12-18T19:19:43.035Z,75.70
2022-12-18T19:22:13.005Z,72.37
2022-12-18T19:24:40.649Z,73.45
2022-12-18T19:27:07.778Z,73.05
2022-12-18T19:29:35.429Z,73.57
2022-12-18T19:32:05.854Z,81.87
2022-12-18T19:34:35.111Z,74.40
2022-12-18T19:37:02.286Z,77.20
2022-12-18T19:39:35.550Z,79.87
2022-12-18T19:42:03.417Z,79.60
2022-12-18T19:44:32.877Z,86.12
2022-12-18T19:47:00.433Z,93.25
2022-12-18T19:49:30.112Z,100.25
2022-12-18T19:51:57.863Z,115.68
2022-12-18T19:54:26.324Z,120.47
2022-12-18T19:56:54.152Z,112.07
2022-12-18T19:59:22.721Z,109.63
2022-12-18T20:01:51.227Z,108.03
2022-12-18T20:04:21.705Z,112.75
2022-12-18T20:06:52.104Z,116.33
2022-12-18T20:09:20.691Z,105.93
2022-12-18T20:11:50.470Z,103.70
2022-12-18T20:14:22.821Z,100.12
2022-12-18T20:16:51.684Z,101.97
2022-12-18T20:19:19.769Z,103.10
2022-12-18T20:21:48.221Z,93.85
2022-12-18T20:24:16.780Z,80.18
2022-12-18T20:26:44.554Z,82.32
2022-12-18T20:29:12.108Z,77.62
2022-12-18T20:31:39.733Z,62.80
2022-12-18T20:34:07.240Z,64.62
2022-12-18T20:36:44.173Z,69.65
2022-12-18T20:39:12.269Z,66.45
2022-12-18T20:41:40.871Z,69.28
2022-12-18T20:44:21.835Z,63.07
2022-12-18T20:46:54.037Z,63.58
2022-12-18T20:49:25.649Z,65.50
2022-12-18T20:51:54.729Z,61.65
2022-12-18T20:54:24.440Z,62.05
2022-12-18T20:56:52.111Z,60.77
2022-12-18T20:59:19.989Z,61.20
2022-12-18T21:01:48.863Z,60.22
2022-12-18T21:04:18.328Z,65.45
2022-12-18T21:06:51.425Z,68.47
2022-12-18T21:09:20.789Z,83.30
2022-12-18T21:12:06.917Z,85.72
2022-12-18T21:14:33.925Z,72.95
2022-12-18T21:17:02.149Z,79.95
2022-12-18T21:19:29.970Z,79.22
2022-12-18T21:21:58.246Z,83.53
2022-12-18T21:24:25.817Z,82.57
2022-12-18T21:26:56.981Z,88.32
2022-12-18T21:29:26.051Z,77.95
2022-12-18T21:31:54.601Z,86.78
2022-12-18T21:34:27.438Z,86.77
2022-12-18T21:36:55.881Z,79.55
2022-12-18T21:39:23.555Z,76.60
2022-12-18T21:42:09.558Z,73.45
2022-12-18T21:44:42.381Z,84.78
2022-12-18T21:47:21.471Z,76.77
2022-12-18T21:49:51.680Z,71.75
2022-12-18T21:52:19.121Z,74.50
2022-12-18T21:54:45.918Z,67.25
2022-12-18T21:57:15.521Z,80.72
2022-12-18T21:59:45.860Z,76.33
2022-12-18T22:02:16.213Z,66.72
2022-12-18T22:04:43.969Z,80.85
2022-12-18T22:07:11.693Z,71.12
2022-12-18T22:09:39.070Z,59.97
2022-12-18T22:12:06.295Z,67.27
2022-12-18T22:14:33.115Z,71.35
2022-12-18T22:17:00.020Z,90.95
2022-12-18T22:19:28.161Z,74.62
2022-12-18T22:21:55.058Z,73.00
2022-12-18T22:24:24.509Z,75.23
2022-12-18T22:26:56.201Z,77.62
2022-12-18T22:29:47.460Z,74.25
2022-12-18T22:32:30.807Z,71.97
2022-12-18T22:35:07.921Z,74.12
2022-12-18T22:37:35.134Z,68.67
2022-12-18T22:40:03.709Z,66.10
2022-12-18T22:42:31.358Z,64.37
2022-12-18T22:44:58.337Z,66.87
2022-12-18T22:47:29.430Z,71.18
2022-12-18T22:49:57.228Z,65.57
2022-12-18T22:52:25.038Z,71.30
2022-12-18T22:54:53.386Z,66.82
2022-12-18T22:57:22.041Z,70.25
2022-12-18T22:59:50.325Z,64.30
2022-12-18T23:02:18.153Z,63.57
2022-12-18T23:04:45.442Z,65.40
2022-12-18T23:07:12.587Z,66.57
2022-12-18T23:09:40.097Z,81.65
2022-12-18T23:12:08.302Z,60.45
2022-12-18T23:14:35.432Z,61.93
2022-12-18T23:17:02.378Z,66.10
2022-12-18T23:19:29.298Z,57.03
2022-12-18T23:21:58.730Z,60.65
2022-12-18T23:24:26.307Z,63.80
2022-12-18T23:26:53.210Z,71.63
2022-12-18T23:29:20.586Z,63.95
2022-12-18T23:31:49.979Z,57.67
2022-12-18T23:34:18.029Z,69.22
2022-12-18T23:36:46.696Z,70.00
2022-12-18T23:39:28.378Z,64.53
2022-12-18T23:41:59.873Z,61.30
2022-12-18T23:44:26.732Z,60.55
2022-12-18T23:46:53.655Z,74.57
2022-12-18T23:49:23.751Z,64.95
2022-12-18T23:51:50.545Z,70.43
2022-12-18T23:54:17.468Z,71.60
2022-12-18T23:56:59.617Z,70.25
2022-12-18T23:59:26.758Z,62.67
